To NAV CANADA Home Page Login to a new session Search on AWWS site Feedback and Comments Disclaimer Vers la page française équivalente Tips FAQ What's new on the site To the Forecasts and Observations / NOTAM section To "File a Flight Plan" website Publications and other links Update of the User's profile FIC Telephone Numbers My Weather Data Folder Route Weather Data Regional Weather Data Local Weather Data To the Forecasts and Observations / NOTAM section
Request Generated 05/03/2016 at 04:56:22 UTC . Weather information available at that time is displayed.

METAR/TAF

GOOSE BAY/NL    

METAR CYYR 030400Z 10002KT 15SM FEW100 M02/M05 A3015 RMK AC1 AURBO SLP214=
METAR CYYR 030300Z 05008KT 15SM FEW100 M00/M05 A3017 RMK AC1 AURBO SLP219=
METAR CYYR 030200Z 07006KT 15SM FEW120 01/M05 A3017 RMK AC1 AURBO SLP220=

TAF CYYR 022330Z 0300/0324 05005KT P6SM FEW040
FM030300 05005KT P6SM FEW005 SCT100 PROB30 0303/0306 BKN005
FM030600 05005KT 5SM BR BKN006 TEMPO 0306/0313 1SM BR OVC003
PROB40 0310/0313 1/2SM -FZDZ FZFG
FM031500 05005KT P6SM SCT006 BKN025 OVC250
FM031700 06008KT P6SM SCT030 OVC220
RMK NXT FCST BY 030600Z=
Your time UTC time
Weather data provided by Environment Canada and NAV CANADA